createdAt,value
2023-05-25T00:04:03.707Z,22.59
2023-05-25T00:09:00.700Z,22.69
2023-05-25T00:13:57.599Z,22.97
2023-05-25T00:18:57.605Z,22.40
2023-05-25T00:23:55.370Z,21.82
2023-05-25T00:28:52.438Z,21.95
2023-05-25T00:33:50.018Z,21.89
2023-05-25T00:38:46.629Z,22.05
2023-05-25T00:43:45.312Z,21.94
2023-05-25T00:48:42.595Z,21.81
2023-05-25T00:53:39.454Z,21.85
2023-05-25T00:58:40.606Z,22.26
2023-05-25T01:03:39.646Z,22.89
2023-05-25T01:08:37.362Z,22.99
2023-05-25T01:13:34.548Z,22.86
2023-05-25T01:18:34.388Z,22.60
2023-05-25T01:23:35.270Z,22.66
2023-05-25T01:28:35.565Z,23.03
2023-05-25T01:33:34.977Z,22.71
2023-05-25T01:38:34.479Z,22.20
2023-05-25T01:43:31.188Z,21.69
2023-05-25T01:48:36.436Z,21.84
2023-05-25T01:53:36.618Z,21.47
2023-05-25T01:58:35.547Z,20.97
2023-05-25T02:03:33.374Z,20.54
2023-05-25T02:08:30.184Z,20.61
2023-05-25T02:13:30.605Z,20.92
2023-05-25T02:18:27.332Z,20.65
2023-05-25T02:23:24.255Z,20.88
2023-05-25T02:28:20.922Z,20.33
2023-05-25T02:33:20.732Z,20.49
2023-05-25T02:38:17.383Z,20.64
2023-05-25T02:43:14.256Z,20.71
2023-05-25T02:48:10.972Z,20.86
2023-05-25T02:53:09.889Z,21.14
2023-05-25T02:58:06.769Z,21.25
2023-05-25T03:03:21.067Z,21.32
2023-05-25T03:08:18.570Z,21.29
2023-05-25T03:13:15.645Z,21.93
2023-05-25T03:18:12.694Z,22.14
2023-05-25T03:23:09.609Z,21.15
2023-05-25T03:28:10.621Z,20.87
2023-05-25T03:33:08.516Z,20.60
2023-05-25T03:38:11.996Z,20.58
2023-05-25T03:43:09.647Z,19.99
2023-05-25T03:48:06.626Z,19.70
2023-05-25T03:53:03.485Z,20.37
2023-05-25T03:58:00.267Z,20.54
2023-05-25T04:02:58.220Z,20.40
2023-05-25T04:07:55.457Z,20.53
2023-05-25T04:12:52.094Z,20.71
2023-05-25T04:17:49.358Z,20.84
2023-05-25T04:22:47.037Z,20.59
2023-05-25T04:27:47.413Z,20.36
2023-05-25T04:32:48.812Z,20.24
2023-05-25T04:38:02.462Z,20.51
2023-05-25T04:43:00.160Z,21.00
2023-05-25T04:48:01.176Z,21.44
2023-05-25T04:52:58.048Z,21.20
2023-05-25T04:57:55.542Z,21.39
2023-05-25T05:02:56.244Z,20.66
2023-05-25T05:07:53.686Z,20.74
2023-05-25T05:12:50.508Z,20.55
2023-05-25T05:17:48.424Z,21.16
2023-05-25T05:22:45.860Z,21.06
2023-05-25T05:27:42.879Z,21.51
2023-05-25T05:32:55.845Z,21.45
2023-05-25T05:38:02.406Z,21.25
2023-05-25T05:42:59.068Z,21.50
2023-05-25T05:47:57.867Z,21.99
2023-05-25T05:52:54.623Z,22.43
2023-05-25T05:57:51.728Z,22.40
2023-05-25T06:02:49.374Z,22.79
2023-05-25T06:07:52.617Z,22.90
2023-05-25T06:12:52.330Z,23.04
2023-05-25T06:17:49.792Z,23.35
2023-05-25T06:22:47.653Z,23.52
2023-05-25T06:27:45.307Z,23.69
2023-05-25T06:32:43.415Z,23.78
2023-05-25T06:37:44.250Z,23.84
2023-05-25T06:42:41.566Z,24.03
2023-05-25T06:47:58.230Z,24.25
2023-05-25T06:52:55.648Z,24.36
2023-05-25T06:57:52.629Z,23.90
2023-05-25T07:02:50.845Z,24.21
2023-05-25T07:07:49.963Z,24.24
2023-05-25T07:12:47.066Z,24.41
2023-05-25T07:17:45.333Z,24.36
2023-05-25T07:22:43.087Z,24.36
2023-05-25T07:27:42.333Z,24.46
2023-05-25T07:32:39.435Z,24.60
2023-05-25T07:37:36.783Z,24.80
2023-05-25T07:42:34.683Z,25.00
2023-05-25T07:47:33.331Z,25.10
2023-05-25T07:52:30.533Z,25.26
2023-05-25T07:57:29.794Z,25.35
2023-05-25T08:02:27.272Z,25.54
2023-05-25T08:07:25.195Z,25.53
2023-05-25T08:12:38.615Z,25.66
2023-05-25T08:17:39.725Z,25.79
2023-05-25T08:22:37.450Z,25.90
2023-05-25T08:27:35.997Z,25.95
2023-05-25T08:32:34.125Z,26.15
2023-05-25T08:37:31.648Z,26.26
2023-05-25T08:42:30.489Z,26.35
2023-05-25T08:47:36.487Z,26.48
2023-05-25T08:52:34.423Z,26.52
2023-05-25T08:57:50.097Z,26.65
2023-05-25T09:02:51.146Z,26.61
2023-05-25T09:07:48.674Z,26.45
2023-05-25T09:12:47.645Z,26.67
2023-05-25T09:17:46.677Z,26.59
2023-05-25T09:22:44.863Z,26.15
2023-05-25T09:27:42.179Z,26.56
2023-05-25T09:32:39.698Z,26.29
2023-05-25T09:37:37.402Z,26.76
2023-05-25T09:42:34.475Z,26.43
2023-05-25T09:47:31.797Z,26.24
2023-05-25T09:52:29.567Z,26.47
2023-05-25T09:57:27.360Z,26.59
2023-05-25T10:02:24.526Z,26.41
2023-05-25T10:07:22.269Z,26.34
2023-05-25T10:12:24.249Z,26.94
2023-05-25T10:17:23.458Z,26.53
2023-05-25T10:22:57.565Z,26.73
2023-05-25T10:27:59.853Z,27.10
2023-05-25T10:33:00.089Z,27.27
2023-05-25T10:37:58.601Z,27.05
2023-05-25T10:42:55.908Z,27.20
2023-05-25T10:47:53.681Z,27.14
2023-05-25T10:53:00.920Z,27.49
2023-05-25T10:58:17.044Z,27.63
2023-05-25T11:03:14.980Z,27.84
2023-05-25T11:08:44.677Z,27.95
2023-05-25T11:13:46.087Z,28.25
2023-05-25T11:18:54.358Z,28.35
2023-05-25T11:23:55.444Z,28.30
2023-05-25T11:28:53.143Z,27.89
2023-05-25T11:33:51.441Z,28.10
2023-05-25T11:39:02.465Z,28.10
2023-05-25T11:44:03.864Z,28.02
2023-05-25T11:49:00.829Z,27.66
2023-05-25T11:53:58.538Z,27.84
2023-05-25T11:58:55.574Z,27.51
2023-05-25T12:03:53.584Z,27.75
2023-05-25T12:08:50.762Z,27.67
2023-05-25T12:13:48.460Z,27.89
2023-05-25T12:18:47.432Z,28.10
2023-05-25T12:23:44.535Z,28.11
2023-05-25T12:28:41.376Z,28.14
2023-05-25T12:33:40.418Z,28.26
2023-05-25T12:38:38.906Z,28.46
2023-05-25T12:43:40.804Z,28.22
2023-05-25T12:49:39.351Z,28.35
2023-05-25T12:54:50.051Z,28.16
2023-05-25T13:05:17.401Z,27.96
2023-05-25T13:10:49.992Z,27.81
2023-05-25T13:15:49.915Z,27.58
2023-05-25T13:20:50.637Z,27.50
2023-05-25T13:25:49.404Z,27.33
2023-05-25T13:30:46.637Z,27.01
2023-05-25T13:35:57.862Z,26.90
2023-05-25T13:40:57.733Z,26.95
2023-05-25T13:45:59.473Z,26.92
2023-05-25T13:50:56.962Z,26.93
2023-05-25T13:55:53.898Z,27.03
2023-05-25T14:00:50.945Z,27.02
2023-05-25T14:05:47.900Z,26.91
2023-05-25T14:10:45.642Z,26.74
2023-05-25T14:15:43.871Z,26.92
2023-05-25T14:20:42.328Z,26.84
2023-05-25T14:25:39.421Z,26.84
2023-05-25T14:30:37.415Z,27.15
2023-05-25T14:35:34.763Z,27.15
2023-05-25T14:40:31.551Z,26.89
2023-05-25T14:45:35.206Z,26.75
2023-05-25T14:50:33.034Z,26.74
2023-05-25T14:55:30.481Z,26.73
2023-05-25T15:00:27.438Z,26.45
2023-05-25T15:05:24.401Z,25.35
2023-05-25T15:10:24.356Z,25.18
2023-05-25T15:15:23.981Z,24.31
2023-05-25T15:20:24.249Z,23.71
2023-05-25T15:25:35.035Z,23.21
2023-05-25T15:30:33.958Z,22.98
2023-05-25T15:35:33.492Z,23.07
2023-05-25T15:40:31.166Z,23.19
2023-05-25T15:45:28.262Z,22.87
2023-05-25T15:50:25.432Z,22.65
2023-05-25T15:55:23.331Z,22.72
2023-05-25T16:00:21.201Z,23.00
2023-05-25T16:05:18.194Z,22.99
2023-05-25T16:10:16.629Z,22.96
2023-05-25T16:15:13.277Z,23.22
2023-05-25T16:20:10.921Z,23.25
2023-05-25T16:25:10.589Z,23.45
2023-05-25T16:30:13.465Z,23.65
2023-05-25T16:35:11.412Z,23.62
2023-05-25T16:40:13.887Z,23.89
2023-05-25T16:45:10.919Z,23.86
2023-05-25T16:50:08.245Z,23.87
2023-05-25T16:55:06.654Z,23.65
2023-05-25T17:00:03.714Z,23.70
2023-05-25T17:05:00.666Z,23.63
2023-05-25T17:09:57.728Z,23.38
2023-05-25T17:14:55.194Z,23.60
2023-05-25T17:19:55.679Z,23.39
2023-05-25T17:24:52.559Z,23.48
2023-05-25T17:29:49.431Z,23.44
2023-05-25T17:34:49.530Z,23.35
2023-05-25T17:39:46.369Z,23.37
2023-05-25T17:44:43.381Z,23.36
2023-05-25T17:49:40.484Z,23.32
2023-05-25T17:54:38.223Z,23.47
2023-05-25T17:59:35.964Z,23.30
2023-05-25T18:04:32.925Z,23.37
2023-05-25T18:09:29.985Z,23.03
2023-05-25T18:14:28.648Z,22.77
2023-05-25T18:19:25.647Z,22.80
2023-05-25T18:24:22.661Z,22.59
2023-05-25T18:29:22.334Z,22.65
2023-05-25T18:34:20.221Z,22.85
2023-05-25T18:39:17.534Z,22.67
2023-05-25T18:44:15.847Z,22.94
2023-05-25T18:49:12.903Z,22.72
2023-05-25T18:54:12.718Z,22.56
2023-05-25T18:59:09.844Z,22.62
2023-05-25T19:04:06.825Z,22.56
2023-05-25T19:09:04.410Z,22.61
2023-05-25T19:14:02.036Z,22.48
2023-05-25T19:18:58.948Z,22.56
2023-05-25T19:23:57.491Z,22.45
2023-05-25T19:28:54.627Z,22.45
2023-05-25T19:33:52.236Z,22.40
2023-05-25T19:38:50.298Z,22.36
2023-05-25T19:43:48.998Z,22.24
2023-05-25T19:48:48.431Z,22.25
2023-05-25T19:53:47.492Z,21.80
2023-05-25T19:58:44.233Z,21.47
2023-05-25T20:03:42.037Z,21.50
2023-05-25T20:08:39.159Z,21.34
2023-05-25T20:13:36.918Z,21.54
2023-05-25T20:18:33.818Z,21.63
2023-05-25T20:23:30.597Z,21.37
2023-05-25T20:28:27.873Z,21.64
2023-05-25T20:33:28.213Z,21.80
2023-05-25T20:38:25.906Z,21.87
2023-05-25T20:43:22.934Z,21.55
2023-05-25T20:48:19.945Z,21.80
2023-05-25T20:53:18.794Z,21.89
2023-05-25T20:58:15.700Z,21.81
2023-05-25T21:03:12.609Z,21.87
2023-05-25T21:08:09.824Z,21.67
2023-05-25T21:13:07.432Z,21.97
2023-05-25T21:18:06.379Z,21.88
2023-05-25T21:23:03.424Z,21.89
2023-05-25T21:28:00.730Z,21.93
2023-05-25T21:32:58.493Z,22.33
2023-05-25T21:37:55.332Z,22.45
2023-05-25T21:42:53.043Z,22.64
2023-05-25T21:47:50.001Z,22.64
2023-05-25T21:52:47.324Z,22.39
2023-05-25T21:57:44.315Z,21.99
2023-05-25T22:02:41.413Z,21.54
2023-05-25T22:07:38.491Z,21.14
2023-05-25T22:12:36.075Z,21.28
2023-05-25T22:17:32.916Z,21.00
2023-05-25T22:22:30.507Z,20.59
2023-05-25T22:27:27.314Z,20.59
2023-05-25T22:32:26.620Z,20.29
2023-05-25T22:37:23.413Z,20.00
2023-05-25T22:42:20.105Z,20.09
2023-05-25T22:47:17.000Z,19.87
2023-05-25T22:52:14.916Z,20.33
2023-05-25T22:57:13.158Z,20.56
2023-05-25T23:02:09.987Z,20.55
2023-05-25T23:07:06.958Z,20.77
2023-05-25T23:12:04.675Z,21.00
2023-05-25T23:17:01.740Z,21.40
2023-05-25T23:21:58.551Z,21.54
2023-05-25T23:26:55.380Z,21.06
2023-05-25T23:31:53.030Z,20.63
2023-05-25T23:36:54.633Z,20.72
2023-05-25T23:41:51.651Z,20.39
2023-05-25T23:46:48.216Z,20.45
2023-05-25T23:51:45.586Z,20.22
2023-05-25T23:56:42.340Z,20.10
